sensor_id;sensor_type;location;lat;lon;timestamp;P1;durP1;ratioP1;P2;durP2;ratioP2
41667;SDS011;27356;50.920;5.350;2023-10-31T00:01:50;3.40;;;2.45;;
41667;SDS011;27356;50.920;5.350;2023-10-31T00:04:15;6.93;;;2.60;;
41667;SDS011;27356;50.920;5.350;2023-10-31T00:06:41;3.08;;;2.78;;
41667;SDS011;27356;50.920;5.350;2023-10-31T00:09:07;4.75;;;2.75;;
41667;SDS011;27356;50.920;5.350;2023-10-31T00:11:35;8.18;;;3.00;;
41667;SDS011;27356;50.920;5.350;2023-10-31T00:14:01;7.00;;;3.40;;
41667;SDS011;27356;50.920;5.350;2023-10-31T00:16:27;4.35;;;3.47;;
41667;SDS011;27356;50.920;5.350;2023-10-31T00:18:53;5.45;;;3.58;;
41667;SDS011;27356;50.920;5.350;2023-10-31T00:21:19;9.02;;;3.70;;
41667;SDS011;27356;50.920;5.350;2023-10-31T00:23:45;10.18;;;4.40;;
41667;SDS011;27356;50.920;5.350;2023-10-31T00:26:13;7.68;;;4.68;;
41667;SDS011;27356;50.920;5.350;2023-10-31T00:28:39;9.52;;;5.20;;
41667;SDS011;27356;50.920;5.350;2023-10-31T00:31:05;10.38;;;5.20;;
41667;SDS011;27356;50.920;5.350;2023-10-31T00:33:33;13.82;;;6.60;;
41667;SDS011;27356;50.920;5.350;2023-10-31T00:36:01;15.73;;;7.22;;
41667;SDS011;27356;50.920;5.350;2023-10-31T00:38:28;19.60;;;7.78;;
41667;SDS011;27356;50.920;5.350;2023-10-31T00:40:53;20.48;;;8.35;;
41667;SDS011;27356;50.920;5.350;2023-10-31T00:43:19;20.15;;;8.90;;
41667;SDS011;27356;50.920;5.350;2023-10-31T00:45:49;18.30;;;9.38;;
41667;SDS011;27356;50.920;5.350;2023-10-31T00:48:15;20.10;;;9.88;;
41667;SDS011;27356;50.920;5.350;2023-10-31T00:50:41;20.55;;;10.02;;
41667;SDS011;27356;50.920;5.350;2023-10-31T00:53:08;17.50;;;9.27;;
41667;SDS011;27356;50.920;5.350;2023-10-31T00:55:34;21.58;;;9.68;;
41667;SDS011;27356;50.920;5.350;2023-10-31T00:57:59;19.40;;;9.70;;
41667;SDS011;27356;50.920;5.350;2023-10-31T01:00:26;20.40;;;9.52;;
41667;SDS011;27356;50.920;5.350;2023-10-31T01:02:52;24.45;;;10.55;;
41667;SDS011;27356;50.920;5.350;2023-10-31T01:05:18;18.45;;;8.93;;
41667;SDS011;27356;50.920;5.350;2023-10-31T01:07:43;20.88;;;9.20;;
41667;SDS011;27356;50.920;5.350;2023-10-31T01:10:12;21.48;;;9.82;;
41667;SDS011;27356;50.920;5.350;2023-10-31T01:12:37;21.10;;;9.65;;
41667;SDS011;27356;50.920;5.350;2023-10-31T01:15:03;18.08;;;9.10;;
41667;SDS011;27356;50.920;5.350;2023-10-31T01:17:29;20.52;;;10.50;;
41667;SDS011;27356;50.920;5.350;2023-10-31T01:19:55;19.33;;;9.38;;
41667;SDS011;27356;50.920;5.350;2023-10-31T01:22:21;16.33;;;8.70;;
41667;SDS011;27356;50.920;5.350;2023-10-31T01:24:47;15.27;;;8.35;;
41667;SDS011;27356;50.920;5.350;2023-10-31T01:27:12;20.90;;;10.20;;
41667;SDS011;27356;50.920;5.350;2023-10-31T01:29:38;14.57;;;7.70;;
41667;SDS011;27356;50.920;5.350;2023-10-31T01:32:04;14.07;;;7.95;;
41667;SDS011;27356;50.920;5.350;2023-10-31T01:34:30;15.63;;;8.27;;
41667;SDS011;27356;50.920;5.350;2023-10-31T01:36:55;16.92;;;7.85;;
41667;SDS011;27356;50.920;5.350;2023-10-31T01:39:21;15.25;;;7.82;;
41667;SDS011;27356;50.920;5.350;2023-10-31T01:41:46;11.88;;;6.70;;
41667;SDS011;27356;50.920;5.350;2023-10-31T01:44:13;11.88;;;7.20;;
41667;SDS011;27356;50.920;5.350;2023-10-31T01:46:39;10.38;;;6.10;;
41667;SDS011;27356;50.920;5.350;2023-10-31T01:49:05;14.38;;;6.47;;
41667;SDS011;27356;50.920;5.350;2023-10-31T01:51:32;10.85;;;5.88;;
41667;SDS011;27356;50.920;5.350;2023-10-31T01:53:58;10.88;;;5.43;;
41667;SDS011;27356;50.920;5.350;2023-10-31T01:56:24;9.63;;;5.05;;
41667;SDS011;27356;50.920;5.350;2023-10-31T01:58:50;6.53;;;4.72;;
41667;SDS011;27356;50.920;5.350;2023-10-31T02:01:17;8.15;;;4.57;;
41667;SDS011;27356;50.920;5.350;2023-10-31T02:03:44;5.05;;;3.30;;
41667;SDS011;27356;50.920;5.350;2023-10-31T02:06:10;8.43;;;3.55;;
41667;SDS011;27356;50.920;5.350;2023-10-31T02:08:36;7.22;;;3.40;;
41667;SDS011;27356;50.920;5.350;2023-10-31T02:11:02;7.57;;;3.30;;
41667;SDS011;27356;50.920;5.350;2023-10-31T02:13:28;4.93;;;3.03;;
41667;SDS011;27356;50.920;5.350;2023-10-31T02:15:54;3.70;;;2.70;;
41667;SDS011;27356;50.920;5.350;2023-10-31T02:18:21;4.22;;;2.63;;
41667;SDS011;27356;50.920;5.350;2023-10-31T02:20:47;4.55;;;2.30;;
41667;SDS011;27356;50.920;5.350;2023-10-31T02:23:15;3.50;;;2.38;;
41667;SDS011;27356;50.920;5.350;2023-10-31T02:25:41;5.75;;;2.65;;
41667;SDS011;27356;50.920;5.350;2023-10-31T02:28:06;2.92;;;2.60;;
41667;SDS011;27356;50.920;5.350;2023-10-31T02:30:33;5.65;;;2.45;;
41667;SDS011;27356;50.920;5.350;2023-10-31T02:33:00;5.30;;;2.60;;
41667;SDS011;27356;50.920;5.350;2023-10-31T02:35:27;6.40;;;2.72;;
41667;SDS011;27356;50.920;5.350;2023-10-31T02:37:52;4.57;;;2.95;;
41667;SDS011;27356;50.920;5.350;2023-10-31T02:40:18;4.93;;;3.00;;
41667;SDS011;27356;50.920;5.350;2023-10-31T02:42:44;6.57;;;4.13;;
41667;SDS011;27356;50.920;5.350;2023-10-31T02:45:09;4.93;;;3.67;;
41667;SDS011;27356;50.920;5.350;2023-10-31T02:47:35;5.95;;;3.50;;
41667;SDS011;27356;50.920;5.350;2023-10-31T02:50:01;4.82;;;3.83;;
41667;SDS011;27356;50.920;5.350;2023-10-31T02:52:27;5.80;;;4.13;;
41667;SDS011;27356;50.920;5.350;2023-10-31T02:54:52;5.18;;;4.00;;
41667;SDS011;27356;50.920;5.350;2023-10-31T02:57:18;8.55;;;4.15;;
41667;SDS011;27356;50.920;5.350;2023-10-31T02:59:44;7.00;;;3.58;;
41667;SDS011;27356;50.920;5.350;2023-10-31T03:02:09;6.07;;;4.38;;
41667;SDS011;27356;50.920;5.350;2023-10-31T03:04:36;5.05;;;3.45;;
41667;SDS011;27356;50.920;5.350;2023-10-31T03:07:02;3.63;;;3.33;;
41667;SDS011;27356;50.920;5.350;2023-10-31T03:09:28;3.60;;;3.30;;
41667;SDS011;27356;50.920;5.350;2023-10-31T03:11:53;4.47;;;3.70;;
41667;SDS011;27356;50.920;5.350;2023-10-31T03:14:19;4.78;;;3.65;;
41667;SDS011;27356;50.920;5.350;2023-10-31T03:16:45;4.82;;;4.43;;
41667;SDS011;27356;50.920;5.350;2023-10-31T03:19:11;5.38;;;4.32;;
41667;SDS011;27356;50.920;5.350;2023-10-31T03:21:36;5.50;;;4.00;;
41667;SDS011;27356;50.920;5.350;2023-10-31T03:24:03;5.05;;;4.38;;
41667;SDS011;27356;50.920;5.350;2023-10-31T03:26:29;6.20;;;3.97;;
41667;SDS011;27356;50.920;5.350;2023-10-31T03:28:54;4.55;;;4.15;;
41667;SDS011;27356;50.920;5.350;2023-10-31T03:31:22;6.57;;;4.53;;
41667;SDS011;27356;50.920;5.350;2023-10-31T03:33:48;4.30;;;3.90;;
41667;SDS011;27356;50.920;5.350;2023-10-31T03:36:14;6.05;;;4.00;;
41667;SDS011;27356;50.920;5.350;2023-10-31T03:38:40;8.70;;;4.28;;
41667;SDS011;27356;50.920;5.350;2023-10-31T03:41:05;5.40;;;4.65;;
41667;SDS011;27356;50.920;5.350;2023-10-31T03:43:31;8.75;;;4.32;;
41667;SDS011;27356;50.920;5.350;2023-10-31T03:45:57;7.00;;;4.20;;
41667;SDS011;27356;50.920;5.350;2023-10-31T03:48:23;5.00;;;4.00;;
41667;SDS011;27356;50.920;5.350;2023-10-31T03:50:48;6.15;;;4.43;;
41667;SDS011;27356;50.920;5.350;2023-10-31T03:53:15;6.78;;;3.80;;
41667;SDS011;27356;50.920;5.350;2023-10-31T03:55:41;4.60;;;4.20;;
41667;SDS011;27356;50.920;5.350;2023-10-31T03:58:06;5.93;;;4.38;;
41667;SDS011;27356;50.920;5.350;2023-10-31T04:00:32;5.40;;;3.95;;
41667;SDS011;27356;50.920;5.350;2023-10-31T04:02:58;4.30;;;3.95;;
41667;SDS011;27356;50.920;5.350;2023-10-31T04:05:24;5.53;;;3.60;;
41667;SDS011;27356;50.920;5.350;2023-10-31T04:07:49;4.18;;;3.78;;
41667;SDS011;27356;50.920;5.350;2023-10-31T04:10:16;4.60;;;4.18;;
41667;SDS011;27356;50.920;5.350;2023-10-31T04:12:43;7.45;;;3.78;;
41667;SDS011;27356;50.920;5.350;2023-10-31T04:15:08;5.03;;;3.90;;
41667;SDS011;27356;50.920;5.350;2023-10-31T04:17:35;4.50;;;4.10;;
41667;SDS011;27356;50.920;5.350;2023-10-31T04:20:01;7.85;;;4.53;;
41667;SDS011;27356;50.920;5.350;2023-10-31T04:22:27;4.18;;;3.65;;
41667;SDS011;27356;50.920;5.350;2023-10-31T04:24:53;5.05;;;3.95;;
41667;SDS011;27356;50.920;5.350;2023-10-31T04:27:18;4.70;;;4.30;;
41667;SDS011;27356;50.920;5.350;2023-10-31T04:29:44;4.50;;;4.00;;
41667;SDS011;27356;50.920;5.350;2023-10-31T04:32:10;6.63;;;4.40;;
41667;SDS011;27356;50.920;5.350;2023-10-31T04:34:39;4.97;;;3.97;;
41667;SDS011;27356;50.920;5.350;2023-10-31T04:37:04;4.38;;;3.97;;
41667;SDS011;27356;50.920;5.350;2023-10-31T04:39:30;4.20;;;3.80;;
41667;SDS011;27356;50.920;5.350;2023-10-31T04:41:56;4.35;;;3.67;;
41667;SDS011;27356;50.920;5.350;2023-10-31T04:44:22;4.65;;;3.83;;
41667;SDS011;27356;50.920;5.350;2023-10-31T04:46:47;8.80;;;3.70;;
41667;SDS011;27356;50.920;5.350;2023-10-31T04:49:13;4.03;;;3.60;;
41667;SDS011;27356;50.920;5.350;2023-10-31T04:51:40;4.32;;;3.50;;
41667;SDS011;27356;50.920;5.350;2023-10-31T04:54:06;4.30;;;3.30;;
41667;SDS011;27356;50.920;5.350;2023-10-31T04:56:32;4.50;;;4.10;;
41667;SDS011;27356;50.920;5.350;2023-10-31T04:58:58;3.88;;;3.50;;
41667;SDS011;27356;50.920;5.350;2023-10-31T05:01:24;3.85;;;3.55;;
41667;SDS011;27356;50.920;5.350;2023-10-31T05:03:51;4.22;;;3.83;;
41667;SDS011;27356;50.920;5.350;2023-10-31T05:06:20;4.30;;;3.90;;
41667;SDS011;27356;50.920;5.350;2023-10-31T05:08:46;3.95;;;3.55;;
41667;SDS011;27356;50.920;5.350;2023-10-31T05:11:12;3.65;;;3.35;;
41667;SDS011;27356;50.920;5.350;2023-10-31T05:13:38;5.13;;;3.83;;
41667;SDS011;27356;50.920;5.350;2023-10-31T05:16:04;6.03;;;3.35;;
41667;SDS011;27356;50.920;5.350;2023-10-31T05:18:30;5.20;;;4.18;;
41667;SDS011;27356;50.920;5.350;2023-10-31T05:20:56;5.32;;;4.32;;
41667;SDS011;27356;50.920;5.350;2023-10-31T05:23:22;4.50;;;4.10;;
41667;SDS011;27356;50.920;5.350;2023-10-31T05:25:47;4.53;;;4.07;;
41667;SDS011;27356;50.920;5.350;2023-10-31T05:28:13;4.80;;;4.28;;
41667;SDS011;27356;50.920;5.350;2023-10-31T05:30:39;4.57;;;4.18;;
41667;SDS011;27356;50.920;5.350;2023-10-31T05:33:04;7.22;;;4.70;;
41667;SDS011;27356;50.920;5.350;2023-10-31T05:35:30;6.90;;;5.28;;
41667;SDS011;27356;50.920;5.350;2023-10-31T05:37:56;7.38;;;5.47;;
41667;SDS011;27356;50.920;5.350;2023-10-31T05:40:22;6.65;;;5.85;;
41667;SDS011;27356;50.920;5.350;2023-10-31T05:42:50;12.07;;;6.50;;
41667;SDS011;27356;50.920;5.350;2023-10-31T05:45:16;7.68;;;6.88;;
41667;SDS011;27356;50.920;5.350;2023-10-31T05:47:41;9.48;;;7.40;;
41667;SDS011;27356;50.920;5.350;2023-10-31T05:50:07;10.52;;;7.65;;
41667;SDS011;27356;50.920;5.350;2023-10-31T05:52:33;7.97;;;7.18;;
41667;SDS011;27356;50.920;5.350;2023-10-31T05:54:59;8.25;;;7.10;;
41667;SDS011;27356;50.920;5.350;2023-10-31T05:57:25;8.35;;;7.43;;
41667;SDS011;27356;50.920;5.350;2023-10-31T05:59:50;8.25;;;6.85;;
41667;SDS011;27356;50.920;5.350;2023-10-31T06:02:16;9.75;;;7.07;;
41667;SDS011;27356;50.920;5.350;2023-10-31T06:04:42;9.23;;;6.65;;
41667;SDS011;27356;50.920;5.350;2023-10-31T06:07:07;9.57;;;7.00;;
41667;SDS011;27356;50.920;5.350;2023-10-31T06:09:33;9.18;;;7.32;;
41667;SDS011;27356;50.920;5.350;2023-10-31T06:11:59;9.07;;;6.43;;
41667;SDS011;27356;50.920;5.350;2023-10-31T06:14:25;7.00;;;6.05;;
41667;SDS011;27356;50.920;5.350;2023-10-31T06:16:51;7.00;;;6.32;;
41667;SDS011;27356;50.920;5.350;2023-10-31T06:19:17;7.95;;;6.18;;
41667;SDS011;27356;50.920;5.350;2023-10-31T06:21:43;8.68;;;7.00;;
41667;SDS011;27356;50.920;5.350;2023-10-31T06:24:09;7.78;;;6.75;;
41667;SDS011;27356;50.920;5.350;2023-10-31T06:26:35;11.20;;;7.22;;
41667;SDS011;27356;50.920;5.350;2023-10-31T06:29:01;9.70;;;8.25;;
41667;SDS011;27356;50.920;5.350;2023-10-31T06:31:26;9.77;;;8.30;;
41667;SDS011;27356;50.920;5.350;2023-10-31T06:33:52;9.82;;;8.32;;
41667;SDS011;27356;50.920;5.350;2023-10-31T06:36:18;11.93;;;8.88;;
41667;SDS011;27356;50.920;5.350;2023-10-31T06:38:43;10.82;;;8.25;;
41667;SDS011;27356;50.920;5.350;2023-10-31T06:41:09;9.57;;;7.47;;
41667;SDS011;27356;50.920;5.350;2023-10-31T06:43:35;10.43;;;7.75;;
41667;SDS011;27356;50.920;5.350;2023-10-31T06:46:01;8.00;;;7.18;;
41667;SDS011;27356;50.920;5.350;2023-10-31T06:48:29;11.43;;;7.22;;
41667;SDS011;27356;50.920;5.350;2023-10-31T06:50:55;11.13;;;7.13;;
41667;SDS011;27356;50.920;5.350;2023-10-31T06:53:20;8.02;;;7.05;;
41667;SDS011;27356;50.920;5.350;2023-10-31T06:55:46;7.80;;;6.93;;
41667;SDS011;27356;50.920;5.350;2023-10-31T06:58:21;9.57;;;7.43;;
41667;SDS011;27356;50.920;5.350;2023-10-31T07:00:47;10.25;;;7.80;;
41667;SDS011;27356;50.920;5.350;2023-10-31T07:03:13;12.73;;;8.07;;
41667;SDS011;27356;50.920;5.350;2023-10-31T07:05:40;10.50;;;7.95;;
41667;SDS011;27356;50.920;5.350;2023-10-31T07:08:07;9.30;;;7.25;;
41667;SDS011;27356;50.920;5.350;2023-10-31T07:10:32;12.05;;;8.65;;
41667;SDS011;27356;50.920;5.350;2023-10-31T07:12:58;9.52;;;7.07;;
41667;SDS011;27356;50.920;5.350;2023-10-31T07:15:25;10.02;;;8.18;;
41667;SDS011;27356;50.920;5.350;2023-10-31T07:17:51;13.38;;;8.15;;
41667;SDS011;27356;50.920;5.350;2023-10-31T07:20:16;10.70;;;7.68;;
41667;SDS011;27356;50.920;5.350;2023-10-31T07:22:42;8.65;;;7.57;;
41667;SDS011;27356;50.920;5.350;2023-10-31T07:25:08;9.32;;;7.05;;
41667;SDS011;27356;50.920;5.350;2023-10-31T07:27:34;8.02;;;7.07;;
41667;SDS011;27356;50.920;5.350;2023-10-31T07:30:01;10.45;;;6.80;;
41667;SDS011;27356;50.920;5.350;2023-10-31T07:32:29;7.90;;;6.78;;
41667;SDS011;27356;50.920;5.350;2023-10-31T07:34:54;8.45;;;7.40;;
41667;SDS011;27356;50.920;5.350;2023-10-31T07:37:20;9.40;;;6.68;;
41667;SDS011;27356;50.920;5.350;2023-10-31T07:39:46;11.15;;;6.82;;
41667;SDS011;27356;50.920;5.350;2023-10-31T07:42:11;6.95;;;5.93;;
41667;SDS011;27356;50.920;5.350;2023-10-31T07:44:37;6.95;;;5.47;;
41667;SDS011;27356;50.920;5.350;2023-10-31T07:47:03;8.38;;;6.55;;
41667;SDS011;27356;50.920;5.350;2023-10-31T07:49:28;6.72;;;5.10;;
41667;SDS011;27356;50.920;5.350;2023-10-31T07:51:54;9.13;;;5.15;;
41667;SDS011;27356;50.920;5.350;2023-10-31T07:54:20;4.25;;;3.45;;
41667;SDS011;27356;50.920;5.350;2023-10-31T07:56:46;4.57;;;2.60;;
41667;SDS011;27356;50.920;5.350;2023-10-31T07:59:12;4.07;;;2.40;;
41667;SDS011;27356;50.920;5.350;2023-10-31T08:01:38;2.88;;;2.30;;
41667;SDS011;27356;50.920;5.350;2023-10-31T08:04:03;5.38;;;2.00;;
41667;SDS011;27356;50.920;5.350;2023-10-31T08:06:29;3.40;;;2.28;;
41667;SDS011;27356;50.920;5.350;2023-10-31T08:08:55;3.83;;;1.95;;
41667;SDS011;27356;50.920;5.350;2023-10-31T08:11:21;3.30;;;2.03;;
41667;SDS011;27356;50.920;5.350;2023-10-31T08:13:47;2.08;;;1.90;;
41667;SDS011;27356;50.920;5.350;2023-10-31T08:16:16;3.80;;;2.05;;
41667;SDS011;27356;50.920;5.350;2023-10-31T08:18:46;2.80;;;2.22;;
41667;SDS011;27356;50.920;5.350;2023-10-31T08:21:12;4.22;;;2.28;;
41667;SDS011;27356;50.920;5.350;2023-10-31T08:23:38;4.05;;;2.00;;
41667;SDS011;27356;50.920;5.350;2023-10-31T08:26:03;3.13;;;2.65;;
41667;SDS011;27356;50.920;5.350;2023-10-31T08:28:30;4.72;;;3.13;;
41667;SDS011;27356;50.920;5.350;2023-10-31T08:30:56;3.97;;;2.17;;
41667;SDS011;27356;50.920;5.350;2023-10-31T08:33:22;6.20;;;2.50;;
41667;SDS011;27356;50.920;5.350;2023-10-31T08:35:48;4.80;;;2.08;;
41667;SDS011;27356;50.920;5.350;2023-10-31T08:38:14;6.93;;;2.47;;
41667;SDS011;27356;50.920;5.350;2023-10-31T08:40:40;5.38;;;2.55;;
41667;SDS011;27356;50.920;5.350;2023-10-31T08:43:06;4.30;;;2.03;;
41667;SDS011;27356;50.920;5.350;2023-10-31T08:45:32;3.90;;;2.33;;
41667;SDS011;27356;50.920;5.350;2023-10-31T08:47:59;2.45;;;2.03;;
41667;SDS011;27356;50.920;5.350;2023-10-31T08:50:25;2.15;;;1.95;;
41667;SDS011;27356;50.920;5.350;2023-10-31T08:52:51;4.03;;;2.50;;
41667;SDS011;27356;50.920;5.350;2023-10-31T08:55:17;5.25;;;2.78;;
41667;SDS011;27356;50.920;5.350;2023-10-31T08:57:43;3.03;;;2.55;;
41667;SDS011;27356;50.920;5.350;2023-10-31T09:00:08;3.40;;;2.42;;
41667;SDS011;27356;50.920;5.350;2023-10-31T09:02:34;3.80;;;2.38;;
41667;SDS011;27356;50.920;5.350;2023-10-31T09:05:01;9.60;;;2.97;;
41667;SDS011;27356;50.920;5.350;2023-10-31T09:07:27;3.13;;;2.63;;
41667;SDS011;27356;50.920;5.350;2023-10-31T09:09:56;3.05;;;2.80;;
41667;SDS011;27356;50.920;5.350;2023-10-31T09:12:22;4.22;;;3.05;;
41667;SDS011;27356;50.920;5.350;2023-10-31T09:14:48;4.45;;;3.08;;
41667;SDS011;27356;50.920;5.350;2023-10-31T09:17:14;4.78;;;2.72;;
41667;SDS011;27356;50.920;5.350;2023-10-31T09:19:40;3.35;;;2.25;;
41667;SDS011;27356;50.920;5.350;2023-10-31T09:22:06;3.20;;;2.20;;
41667;SDS011;27356;50.920;5.350;2023-10-31T09:24:33;3.50;;;2.30;;
41667;SDS011;27356;50.920;5.350;2023-10-31T09:26:59;3.28;;;2.33;;
41667;SDS011;27356;50.920;5.350;2023-10-31T09:29:33;3.15;;;2.08;;
41667;SDS011;27356;50.920;5.350;2023-10-31T09:31:59;6.30;;;2.17;;
41667;SDS011;27356;50.920;5.350;2023-10-31T09:42:16;3.92;;;1.77;;
41667;SDS011;27356;50.920;5.350;2023-10-31T09:44:51;4.30;;;1.50;;
41667;SDS011;27356;50.920;5.350;2023-10-31T09:47:18;3.28;;;2.05;;
41667;SDS011;27356;50.920;5.350;2023-10-31T09:49:48;2.50;;;1.40;;
41667;SDS011;27356;50.920;5.350;2023-10-31T09:52:23;2.38;;;1.23;;
41667;SDS011;27356;50.920;5.350;2023-10-31T09:55:16;7.47;;;1.65;;
41667;SDS011;27356;50.920;5.350;2023-10-31T09:57:58;2.05;;;1.08;;
41667;SDS011;27356;50.920;5.350;2023-10-31T10:00:24;1.70;;;1.10;;
41667;SDS011;27356;50.920;5.350;2023-10-31T10:02:54;1.40;;;1.05;;
41667;SDS011;27356;50.920;5.350;2023-10-31T10:05:21;4.63;;;1.42;;
41667;SDS011;27356;50.920;5.350;2023-10-31T10:07:49;3.88;;;1.10;;
41667;SDS011;27356;50.920;5.350;2023-10-31T10:10:15;0.93;;;0.70;;
41667;SDS011;27356;50.920;5.350;2023-10-31T10:12:44;2.45;;;1.10;;
41667;SDS011;27356;50.920;5.350;2023-10-31T10:15:11;6.32;;;1.10;;
41667;SDS011;27356;50.920;5.350;2023-10-31T10:17:41;1.58;;;1.00;;
41667;SDS011;27356;50.920;5.350;2023-10-31T10:20:14;3.83;;;0.93;;
41667;SDS011;27356;50.920;5.350;2023-10-31T10:22:40;4.35;;;1.00;;
41667;SDS011;27356;50.920;5.350;2023-10-31T10:25:17;0.77;;;0.73;;
41667;SDS011;27356;50.920;5.350;2023-10-31T10:27:46;2.33;;;1.27;;
41667;SDS011;27356;50.920;5.350;2023-10-31T10:30:13;2.08;;;1.08;;
41667;SDS011;27356;50.920;5.350;2023-10-31T10:32:39;2.55;;;0.90;;
41667;SDS011;27356;50.920;5.350;2023-10-31T10:35:06;5.18;;;1.50;;
41667;SDS011;27356;50.920;5.350;2023-10-31T10:37:33;4.57;;;1.10;;
41667;SDS011;27356;50.920;5.350;2023-10-31T10:40:02;1.50;;;1.40;;
41667;SDS011;27356;50.920;5.350;2023-10-31T10:42:32;3.33;;;1.00;;
41667;SDS011;27356;50.920;5.350;2023-10-31T10:45:03;4.25;;;1.20;;
41667;SDS011;27356;50.920;5.350;2023-10-31T10:47:30;2.88;;;1.15;;
41667;SDS011;27356;50.920;5.350;2023-10-31T10:50:01;5.82;;;1.38;;
41667;SDS011;27356;50.920;5.350;2023-10-31T10:55:24;2.80;;;1.45;;
41667;SDS011;27356;50.920;5.350;2023-10-31T10:58:01;0.98;;;0.82;;
41667;SDS011;27356;50.920;5.350;2023-10-31T11:00:30;3.58;;;1.00;;
41667;SDS011;27356;50.920;5.350;2023-10-31T11:02:56;5.32;;;1.05;;
41667;SDS011;27356;50.920;5.350;2023-10-31T11:05:23;6.28;;;1.05;;
41667;SDS011;27356;50.920;5.350;2023-10-31T11:07:49;5.05;;;0.93;;
41667;SDS011;27356;50.920;5.350;2023-10-31T11:10:17;4.57;;;1.25;;
41667;SDS011;27356;50.920;5.350;2023-10-31T11:12:43;3.60;;;1.00;;
41667;SDS011;27356;50.920;5.350;2023-10-31T11:15:09;1.85;;;0.80;;
41667;SDS011;27356;50.920;5.350;2023-10-31T11:17:45;4.53;;;1.15;;
41667;SDS011;27356;50.920;5.350;2023-10-31T11:20:13;4.15;;;1.17;;
41667;SDS011;27356;50.920;5.350;2023-10-31T11:22:42;2.92;;;1.10;;
41667;SDS011;27356;50.920;5.350;2023-10-31T11:25:11;4.97;;;1.05;;
41667;SDS011;27356;50.920;5.350;2023-10-31T11:27:39;4.57;;;1.20;;
41667;SDS011;27356;50.920;5.350;2023-10-31T11:30:07;3.08;;;1.00;;
41667;SDS011;27356;50.920;5.350;2023-10-31T11:32:48;3.75;;;1.17;;
41667;SDS011;27356;50.920;5.350;2023-10-31T11:35:17;4.60;;;0.80;;
41667;SDS011;27356;50.920;5.350;2023-10-31T11:37:43;1.15;;;0.95;;
41667;SDS011;27356;50.920;5.350;2023-10-31T11:40:24;9.20;;;1.95;;
41667;SDS011;27356;50.920;5.350;2023-10-31T11:42:53;3.55;;;1.10;;
41667;SDS011;27356;50.920;5.350;2023-10-31T11:48:02;4.65;;;0.95;;
41667;SDS011;27356;50.920;5.350;2023-10-31T11:50:30;3.08;;;1.13;;
41667;SDS011;27356;50.920;5.350;2023-10-31T11:55:36;5.75;;;1.45;;
41667;SDS011;27356;50.920;5.350;2023-10-31T11:58:15;4.82;;;1.20;;
41667;SDS011;27356;50.920;5.350;2023-10-31T12:00:44;4.30;;;1.48;;
41667;SDS011;27356;50.920;5.350;2023-10-31T12:03:11;2.13;;;1.10;;
41667;SDS011;27356;50.920;5.350;2023-10-31T12:05:37;2.10;;;1.02;;
41667;SDS011;27356;50.920;5.350;2023-10-31T12:08:03;5.35;;;1.00;;
41667;SDS011;27356;50.920;5.350;2023-10-31T12:10:29;4.85;;;1.00;;
41667;SDS011;27356;50.920;5.350;2023-10-31T12:12:56;3.60;;;1.20;;
41667;SDS011;27356;50.920;5.350;2023-10-31T12:15:23;2.65;;;0.75;;
41667;SDS011;27356;50.920;5.350;2023-10-31T12:17:49;5.53;;;0.90;;
41667;SDS011;27356;50.920;5.350;2023-10-31T12:20:15;5.82;;;1.70;;
41667;SDS011;27356;50.920;5.350;2023-10-31T12:22:41;4.07;;;1.00;;
41667;SDS011;27356;50.920;5.350;2023-10-31T12:25:08;3.22;;;1.05;;
41667;SDS011;27356;50.920;5.350;2023-10-31T12:27:48;3.58;;;0.95;;
41667;SDS011;27356;50.920;5.350;2023-10-31T12:30:18;5.45;;;1.05;;
41667;SDS011;27356;50.920;5.350;2023-10-31T12:32:52;3.03;;;0.98;;
41667;SDS011;27356;50.920;5.350;2023-10-31T12:35:23;3.75;;;1.55;;
41667;SDS011;27356;50.920;5.350;2023-10-31T12:37:50;4.30;;;1.30;;
41667;SDS011;27356;50.920;5.350;2023-10-31T12:40:17;8.20;;;1.33;;
41667;SDS011;27356;50.920;5.350;2023-10-31T12:42:44;3.50;;;1.23;;
41667;SDS011;27356;50.920;5.350;2023-10-31T12:45:12;4.82;;;1.85;;
41667;SDS011;27356;50.920;5.350;2023-10-31T12:47:40;4.75;;;1.20;;
41667;SDS011;27356;50.920;5.350;2023-10-31T12:50:18;4.53;;;1.45;;
41667;SDS011;27356;50.920;5.350;2023-10-31T12:55:16;6.05;;;1.30;;
41667;SDS011;27356;50.920;5.350;2023-10-31T12:57:46;4.88;;;1.25;;
41667;SDS011;27356;50.920;5.350;2023-10-31T13:00:16;9.40;;;1.10;;
41667;SDS011;27356;50.920;5.350;2023-10-31T13:02:49;2.88;;;1.33;;
41667;SDS011;27356;50.920;5.350;2023-10-31T13:05:35;4.90;;;1.30;;
41667;SDS011;27356;50.920;5.350;2023-10-31T13:08:22;4.88;;;0.98;;
41667;SDS011;27356;50.920;5.350;2023-10-31T13:11:09;2.28;;;1.48;;
41667;SDS011;27356;50.920;5.350;2023-10-31T13:13:35;4.82;;;0.85;;
41667;SDS011;27356;50.920;5.350;2023-10-31T13:16:02;3.05;;;1.00;;
41667;SDS011;27356;50.920;5.350;2023-10-31T13:18:30;2.88;;;0.82;;
41667;SDS011;27356;50.920;5.350;2023-10-31T13:20:57;3.92;;;1.23;;
41667;SDS011;27356;50.920;5.350;2023-10-31T13:23:23;6.75;;;0.93;;
41667;SDS011;27356;50.920;5.350;2023-10-31T13:25:48;4.93;;;1.05;;
41667;SDS011;27356;50.920;5.350;2023-10-31T13:28:15;2.30;;;0.88;;
41667;SDS011;27356;50.920;5.350;2023-10-31T13:30:41;2.67;;;0.77;;
41667;SDS011;27356;50.920;5.350;2023-10-31T13:33:18;1.55;;;0.50;;
41667;SDS011;27356;50.920;5.350;2023-10-31T13:35:44;3.65;;;0.80;;
41667;SDS011;27356;50.920;5.350;2023-10-31T13:38:10;1.40;;;0.55;;
41667;SDS011;27356;50.920;5.350;2023-10-31T13:40:36;1.67;;;0.60;;
41667;SDS011;27356;50.920;5.350;2023-10-31T13:43:05;3.03;;;0.98;;
41667;SDS011;27356;50.920;5.350;2023-10-31T13:45:37;3.20;;;0.82;;
41667;SDS011;27356;50.920;5.350;2023-10-31T13:48:03;4.05;;;1.00;;
41667;SDS011;27356;50.920;5.350;2023-10-31T13:50:29;2.42;;;1.13;;
41667;SDS011;27356;50.920;5.350;2023-10-31T13:52:55;3.72;;;1.10;;
41667;SDS011;27356;50.920;5.350;2023-10-31T13:55:21;3.45;;;0.90;;
41667;SDS011;27356;50.920;5.350;2023-10-31T13:57:48;4.00;;;1.10;;
41667;SDS011;27356;50.920;5.350;2023-10-31T14:00:15;5.35;;;1.17;;
41667;SDS011;27356;50.920;5.350;2023-10-31T14:02:41;2.03;;;1.15;;
41667;SDS011;27356;50.920;5.350;2023-10-31T14:05:10;1.85;;;0.85;;
41667;SDS011;27356;50.920;5.350;2023-10-31T14:07:38;1.90;;;1.00;;
41667;SDS011;27356;50.920;5.350;2023-10-31T14:10:05;4.15;;;1.23;;
41667;SDS011;27356;50.920;5.350;2023-10-31T14:12:31;1.25;;;0.95;;
41667;SDS011;27356;50.920;5.350;2023-10-31T14:14:57;5.43;;;1.20;;
41667;SDS011;27356;50.920;5.350;2023-10-31T14:17:24;1.67;;;0.90;;
41667;SDS011;27356;50.920;5.350;2023-10-31T14:19:50;2.60;;;0.90;;
41667;SDS011;27356;50.920;5.350;2023-10-31T14:22:21;2.47;;;1.38;;
41667;SDS011;27356;50.920;5.350;2023-10-31T14:24:47;2.38;;;1.05;;
41667;SDS011;27356;50.920;5.350;2023-10-31T14:27:18;2.35;;;1.20;;
41667;SDS011;27356;50.920;5.350;2023-10-31T14:29:46;3.08;;;1.15;;
41667;SDS011;27356;50.920;5.350;2023-10-31T14:32:13;3.88;;;1.25;;
41667;SDS011;27356;50.920;5.350;2023-10-31T14:34:41;2.38;;;1.02;;
41667;SDS011;27356;50.920;5.350;2023-10-31T14:37:07;4.07;;;1.13;;
41667;SDS011;27356;50.920;5.350;2023-10-31T14:39:33;4.53;;;1.30;;
41667;SDS011;27356;50.920;5.350;2023-10-31T14:41:59;1.27;;;0.90;;
41667;SDS011;27356;50.920;5.350;2023-10-31T14:44:25;2.67;;;1.08;;
41667;SDS011;27356;50.920;5.350;2023-10-31T14:46:51;2.00;;;1.00;;
41667;SDS011;27356;50.920;5.350;2023-10-31T14:49:18;5.30;;;1.17;;
41667;SDS011;27356;50.920;5.350;2023-10-31T14:51:44;2.50;;;0.80;;
41667;SDS011;27356;50.920;5.350;2023-10-31T14:54:10;1.88;;;0.82;;
41667;SDS011;27356;50.920;5.350;2023-10-31T14:56:35;2.92;;;1.08;;
41667;SDS011;27356;50.920;5.350;2023-10-31T14:59:02;1.63;;;0.93;;
41667;SDS011;27356;50.920;5.350;2023-10-31T15:01:28;0.90;;;0.90;;
41667;SDS011;27356;50.920;5.350;2023-10-31T15:03:54;3.50;;;0.80;;